createdAt,value
2023-03-30T00:00:28.816Z,72
2023-03-30T00:01:59.301Z,72
2023-03-30T00:03:29.861Z,72
2023-03-30T00:05:00.194Z,72
2023-03-30T00:06:30.554Z,72
2023-03-30T00:08:00.928Z,72
2023-03-30T00:09:31.337Z,72
2023-03-30T00:11:02.012Z,72
2023-03-30T00:12:32.150Z,72
2023-03-30T00:14:02.609Z,72
2023-03-30T00:15:32.998Z,72
2023-03-30T00:17:03.475Z,72
2023-03-30T00:18:33.845Z,72
2023-03-30T00:20:04.322Z,72
2023-03-30T00:21:34.749Z,72
2023-03-30T00:23:05.101Z,72
2023-03-30T00:24:35.518Z,72
2023-03-30T00:26:05.951Z,72
2023-03-30T00:27:36.396Z,72
2023-03-30T00:29:38.841Z,72
2023-03-30T00:31:09.242Z,72
2023-03-30T00:32:39.798Z,72
2023-03-30T00:34:10.193Z,72
2023-03-30T00:35:40.621Z,72
2023-03-30T00:37:11.107Z,72
2023-03-30T00:38:41.454Z,72
2023-03-30T00:40:11.866Z,72
2023-03-30T00:41:42.275Z,72
2023-03-30T00:43:12.752Z,72
2023-03-30T00:44:43.112Z,72
2023-03-30T00:46:13.575Z,72
2023-03-30T00:47:44.066Z,72
2023-03-30T00:49:14.377Z,72
2023-03-30T00:50:44.794Z,72
2023-03-30T00:52:15.187Z,72
2023-03-30T00:53:45.540Z,72
2023-03-30T00:55:15.958Z,72
2023-03-30T00:56:46.390Z,72
2023-03-30T00:58:16.840Z,72
2023-03-30T00:59:47.229Z,72
2023-03-30T01:01:17.703Z,72
2023-03-30T01:02:48.169Z,72
2023-03-30T01:04:18.468Z,72
2023-03-30T01:05:48.889Z,72
2023-03-30T01:07:19.342Z,72
2023-03-30T01:10:57.431Z,72
2023-03-30T01:12:27.848Z,72
2023-03-30T01:13:58.218Z,72
2023-03-30T01:15:28.637Z,72
2023-03-30T01:16:59.011Z,72
2023-03-30T01:18:29.474Z,72
2023-03-30T01:19:59.829Z,72
2023-03-30T01:21:30.253Z,72
2023-03-30T01:23:00.754Z,72
2023-03-30T01:25:03.159Z,72
2023-03-30T01:26:33.571Z,72
2023-03-30T01:28:04.035Z,72
2023-03-30T01:29:34.408Z,72
2023-03-30T01:31:05.012Z,72
2023-03-30T01:32:35.284Z,72
2023-03-30T01:34:05.725Z,72
2023-03-30T01:35:36.203Z,72
2023-03-30T01:37:06.513Z,72
2023-03-30T01:38:37.014Z,72
2023-03-30T01:40:07.337Z,72
2023-03-30T01:41:37.758Z,72
2023-03-30T01:43:08.175Z,72
2023-03-30T01:44:38.645Z,72
2023-03-30T01:46:09.050Z,72
2023-03-30T01:47:39.487Z,72
2023-03-30T01:49:09.923Z,72
2023-03-30T01:50:40.271Z,72
2023-03-30T01:52:10.713Z,72
2023-03-30T01:53:41.208Z,72
2023-03-30T01:55:43.587Z,72
2023-03-30T01:57:14.055Z,72
2023-03-30T01:58:44.492Z,72
2023-03-30T02:00:15.096Z,72
2023-03-30T02:01:45.301Z,72
2023-03-30T02:03:15.739Z,72
2023-03-30T02:04:46.161Z,72
2023-03-30T02:06:16.664Z,72
2023-03-30T02:07:47.048Z,72
2023-03-30T02:09:17.547Z,72
2023-03-30T02:10:47.985Z,72
2023-03-30T02:12:18.422Z,72
2023-03-30T02:13:48.819Z,72
2023-03-30T02:15:19.305Z,72
2023-03-30T02:17:21.709Z,72
2023-03-30T02:18:52.140Z,72
2023-03-30T02:20:22.616Z,73
2023-03-30T02:21:52.959Z,72
2023-03-30T02:23:23.393Z,72
2023-03-30T02:24:53.980Z,73
2023-03-30T02:26:24.257Z,72
2023-03-30T02:27:54.668Z,72
2023-03-30T02:29:25.152Z,72
2023-03-30T02:30:55.505Z,72
2023-03-30T02:32:25.947Z,72
2023-03-30T02:33:56.329Z,73
2023-03-30T02:35:26.819Z,72
2023-03-30T02:36:57.284Z,73
2023-03-30T02:38:27.689Z,72
2023-03-30T02:39:58.212Z,72
2023-03-30T02:41:28.649Z,72
2023-03-30T02:42:59.054Z,72
2023-03-30T02:44:29.422Z,72
2023-03-30T02:45:59.847Z,72
2023-03-30T02:47:30.224Z,72
2023-03-30T02:49:00.638Z,72
2023-03-30T02:50:31.099Z,72
2023-03-30T02:52:01.596Z,72
2023-03-30T02:53:31.995Z,72
2023-03-30T02:55:02.483Z,72
2023-03-30T02:56:32.830Z,72
2023-03-30T02:58:03.281Z,72
2023-03-30T02:59:33.682Z,72
2023-03-30T03:01:04.365Z,72
2023-03-30T03:04:10.205Z,73
2023-03-30T03:05:40.633Z,72
2023-03-30T03:07:11.002Z,73
2023-03-30T03:08:41.404Z,72
2023-03-30T03:10:11.917Z,72
2023-03-30T03:11:42.252Z,72
2023-03-30T03:13:12.683Z,72
2023-03-30T03:14:43.091Z,73
2023-03-30T03:16:13.465Z,73
2023-03-30T03:17:43.842Z,73
2023-03-30T03:19:14.263Z,73
2023-03-30T03:20:44.714Z,72
2023-03-30T03:22:47.133Z,72
2023-03-30T03:24:17.547Z,72
2023-03-30T03:25:48.050Z,72
2023-03-30T03:27:50.444Z,72
2023-03-30T03:29:20.866Z,72
2023-03-30T03:30:51.351Z,72
2023-03-30T03:32:21.773Z,72
2023-03-30T03:33:52.146Z,73
2023-03-30T03:35:22.511Z,72
2023-03-30T03:36:52.890Z,73
2023-03-30T03:38:23.286Z,73
2023-03-30T03:39:53.726Z,73
2023-03-30T03:41:24.164Z,73
2023-03-30T03:42:54.514Z,72
2023-03-30T03:44:24.843Z,73
2023-03-30T03:45:55.198Z,72
2023-03-30T03:47:57.779Z,73
2023-03-30T03:49:28.049Z,72
2023-03-30T03:50:58.390Z,73
2023-03-30T03:52:28.773Z,73
2023-03-30T03:53:59.094Z,73
2023-03-30T03:55:29.509Z,73
2023-03-30T03:56:59.922Z,73
2023-03-30T03:58:30.148Z,73
2023-03-30T04:00:00.372Z,73
2023-03-30T04:01:30.687Z,73
2023-03-30T04:03:01.030Z,73
2023-03-30T04:04:31.322Z,73
2023-03-30T04:06:01.674Z,73
2023-03-30T04:07:32.063Z,73
2023-03-30T04:09:02.363Z,73
2023-03-30T04:10:32.687Z,73
2023-03-30T04:12:03.065Z,73
2023-03-30T04:13:33.422Z,73
2023-03-30T04:15:03.753Z,73
2023-03-30T04:16:34.273Z,73
2023-03-30T04:18:36.623Z,73
2023-03-30T04:20:06.951Z,73
2023-03-30T04:21:37.299Z,73
2023-03-30T04:23:07.681Z,73
2023-03-30T04:24:37.997Z,73
2023-03-30T04:26:08.368Z,73
2023-03-30T04:28:10.839Z,73
2023-03-30T04:29:41.201Z,73
2023-03-30T04:31:11.596Z,73
2023-03-30T04:33:13.990Z,73
2023-03-30T04:34:44.325Z,73
2023-03-30T04:36:14.686Z,73
2023-03-30T04:37:45.060Z,73
2023-03-30T04:39:15.462Z,73
2023-03-30T04:40:45.793Z,73
2023-03-30T04:42:16.178Z,73
2023-03-30T04:44:18.620Z,73
2023-03-30T04:45:48.924Z,73
2023-03-30T04:47:19.259Z,73
2023-03-30T04:48:49.526Z,73
2023-03-30T04:50:51.957Z,73
2023-03-30T04:52:22.386Z,73
2023-03-30T04:53:52.758Z,73
2023-03-30T04:55:23.183Z,73
2023-03-30T04:56:53.528Z,73
2023-03-30T04:58:23.889Z,73
2023-03-30T04:59:54.736Z,73
2023-03-30T05:01:24.718Z,73
2023-03-30T05:03:27.197Z,73
2023-03-30T05:04:57.532Z,73
2023-03-30T05:06:27.917Z,73
2023-03-30T05:08:30.327Z,73
2023-03-30T05:10:00.638Z,73
2023-03-30T05:11:30.985Z,73
2023-03-30T05:13:01.374Z,73
2023-03-30T05:14:31.793Z,73
2023-03-30T05:16:02.112Z,73
2023-03-30T05:17:32.540Z,73
2023-03-30T05:19:34.891Z,73
2023-03-30T05:21:05.656Z,73
2023-03-30T05:22:35.762Z,73
2023-03-30T05:24:06.167Z,73
2023-03-30T05:25:36.586Z,73
2023-03-30T05:27:06.991Z,73
2023-03-30T05:29:09.343Z,73
2023-03-30T05:30:39.706Z,73
2023-03-30T05:32:10.073Z,73
2023-03-30T05:33:42.014Z,73
2023-03-30T05:35:10.860Z,73
2023-03-30T05:36:41.299Z,73
2023-03-30T05:38:43.748Z,73
2023-03-30T05:40:14.179Z,73
2023-03-30T05:41:44.638Z,73
2023-03-30T05:43:47.028Z,73
2023-03-30T05:45:17.371Z,73
2023-03-30T05:46:47.837Z,73
2023-03-30T05:48:18.221Z,73
2023-03-30T05:49:48.634Z,73
2023-03-30T05:51:19.044Z,73
2023-03-30T05:52:49.407Z,73
2023-03-30T05:54:19.781Z,73
2023-03-30T05:55:50.218Z,73
2023-03-30T05:57:20.744Z,73
2023-03-30T05:58:51.018Z,73
2023-03-30T06:00:21.343Z,73
2023-03-30T06:03:27.499Z,73
2023-03-30T06:04:57.874Z,73
2023-03-30T06:06:28.152Z,73
2023-03-30T06:07:58.493Z,73
2023-03-30T06:09:28.882Z,73
2023-03-30T06:10:59.337Z,73
2023-03-30T06:12:29.787Z,73
2023-03-30T06:14:32.232Z,73
2023-03-30T06:16:03.733Z,73
2023-03-30T06:17:33.005Z,73
2023-03-30T06:20:39.046Z,73
2023-03-30T06:22:09.510Z,73
2023-03-30T06:23:39.853Z,73
2023-03-30T06:25:10.259Z,73
2023-03-30T06:26:40.566Z,73
2023-03-30T06:28:10.935Z,73
2023-03-30T06:29:41.327Z,73
2023-03-30T06:31:11.744Z,73
2023-03-30T06:32:42.209Z,73
2023-03-30T06:34:12.574Z,73
2023-03-30T06:35:43.112Z,73
2023-03-30T06:37:13.426Z,73
2023-03-30T06:38:43.888Z,73
2023-03-30T06:40:46.417Z,73
2023-03-30T06:42:16.801Z,73
2023-03-30T06:43:47.186Z,73
2023-03-30T06:45:17.559Z,73
2023-03-30T06:46:48.005Z,73
2023-03-30T06:48:18.315Z,73
2023-03-30T06:49:48.706Z,73
2023-03-30T06:51:19.172Z,73
2023-03-30T06:52:49.696Z,73
2023-03-30T06:54:19.911Z,73
2023-03-30T06:55:50.274Z,73
2023-03-30T06:57:20.622Z,73
2023-03-30T06:58:50.921Z,73
2023-03-30T07:00:21.320Z,73
2023-03-30T07:01:51.697Z,73
2023-03-30T07:03:22.039Z,73
2023-03-30T07:05:24.451Z,73
2023-03-30T07:06:54.904Z,73
2023-03-30T07:08:25.334Z,73
2023-03-30T07:09:55.718Z,73
2023-03-30T07:11:26.156Z,73
2023-03-30T07:12:56.556Z,73
2023-03-30T07:14:26.906Z,73
2023-03-30T07:15:57.312Z,73
2023-03-30T07:17:27.934Z,73
2023-03-30T07:18:58.081Z,73
2023-03-30T07:21:00.662Z,73
2023-03-30T07:22:30.928Z,73
2023-03-30T07:24:01.270Z,73
2023-03-30T07:26:03.716Z,73
2023-03-30T07:27:34.131Z,73
2023-03-30T07:29:04.569Z,73
2023-03-30T07:30:34.971Z,73
2023-03-30T07:32:05.385Z,73
2023-03-30T07:33:35.895Z,73
2023-03-30T07:35:43.233Z,73
2023-03-30T07:37:45.685Z,73
2023-03-30T07:39:16.009Z,73
2023-03-30T07:41:18.421Z,73
2023-03-30T07:42:48.759Z,73
2023-03-30T07:44:19.129Z,73
2023-03-30T07:46:21.603Z,73
2023-03-30T07:47:51.986Z,73
2023-03-30T07:49:22.413Z,73
2023-03-30T07:50:52.787Z,73
2023-03-30T07:52:23.096Z,73
2023-03-30T07:53:53.573Z,74
2023-03-30T07:55:23.953Z,73
2023-03-30T07:56:54.395Z,73
2023-03-30T07:58:24.806Z,73
2023-03-30T07:59:55.143Z,74
2023-03-30T08:01:25.537Z,73
2023-03-30T08:02:56.020Z,74
2023-03-30T08:04:26.648Z,74
2023-03-30T08:05:56.804Z,74
2023-03-30T08:07:27.234Z,74
2023-03-30T08:08:57.700Z,74
2023-03-30T08:11:00.122Z,74
2023-03-30T08:12:30.520Z,74
2023-03-30T08:14:00.904Z,74
2023-03-30T08:16:03.360Z,74
2023-03-30T08:17:33.718Z,74
2023-03-30T08:19:04.060Z,74
2023-03-30T08:20:34.457Z,74
2023-03-30T08:22:04.766Z,74
2023-03-30T08:23:35.109Z,74
2023-03-30T08:25:05.569Z,74
2023-03-30T08:26:35.967Z,74
2023-03-30T08:28:06.362Z,74
2023-03-30T08:29:36.815Z,74
2023-03-30T08:31:39.268Z,74
2023-03-30T08:33:09.619Z,74
2023-03-30T08:34:39.930Z,74
2023-03-30T08:36:42.357Z,74
2023-03-30T08:38:12.778Z,74
2023-03-30T08:39:43.295Z,74
2023-03-30T08:41:13.630Z,74
2023-03-30T08:42:43.897Z,74
2023-03-30T08:44:14.374Z,74
2023-03-30T08:45:44.796Z,74
2023-03-30T08:47:15.200Z,74
2023-03-30T08:48:45.591Z,74
2023-03-30T08:50:15.990Z,74
2023-03-30T08:51:46.332Z,74
2023-03-30T08:53:16.745Z,74
2023-03-30T08:54:47.141Z,74
2023-03-30T08:56:17.520Z,74
2023-03-30T08:57:47.915Z,74
2023-03-30T08:59:18.367Z,74
2023-03-30T09:00:48.768Z,74
2023-03-30T09:02:19.212Z,74
2023-03-30T09:03:49.591Z,74
2023-03-30T09:05:19.997Z,74
2023-03-30T09:06:50.343Z,74
2023-03-30T09:08:20.747Z,74
2023-03-30T09:09:51.088Z,74
2023-03-30T09:11:21.512Z,74
2023-03-30T09:12:51.799Z,74
2023-03-30T09:14:22.169Z,74
2023-03-30T09:16:24.601Z,74
2023-03-30T09:17:55.048Z,74
2023-03-30T09:19:25.484Z,74
2023-03-30T09:21:27.890Z,74
2023-03-30T09:22:58.231Z,74
2023-03-30T09:24:28.592Z,75
2023-03-30T09:26:31.027Z,74
2023-03-30T09:28:01.325Z,74
2023-03-30T09:29:31.673Z,74
2023-03-30T09:31:02.088Z,74
2023-03-30T09:32:32.661Z,74
2023-03-30T09:34:02.800Z,75
2023-03-30T09:35:33.146Z,74
2023-03-30T09:37:03.546Z,74
2023-03-30T09:38:33.956Z,74
2023-03-30T09:40:04.267Z,75
2023-03-30T09:41:34.711Z,75
2023-03-30T09:43:05.006Z,75
2023-03-30T09:44:35.312Z,75
2023-03-30T09:46:05.859Z,75
2023-03-30T09:47:36.090Z,75
2023-03-30T09:49:06.511Z,75
2023-03-30T09:50:36.931Z,75
2023-03-30T09:52:07.340Z,75
2023-03-30T09:53:37.728Z,75
2023-03-30T09:55:08.118Z,75
2023-03-30T09:56:40.259Z,75
2023-03-30T09:58:08.873Z,75
2023-03-30T09:59:39.209Z,75
2023-03-30T10:01:09.702Z,75
2023-03-30T10:02:40.100Z,75
2023-03-30T10:04:10.817Z,75
2023-03-30T10:05:40.936Z,75
2023-03-30T10:07:18.456Z,75
2023-03-30T10:08:41.754Z,75
2023-03-30T10:10:12.226Z,75
2023-03-30T10:12:14.654Z,75
2023-03-30T10:13:45.044Z,75
2023-03-30T10:15:15.501Z,75
2023-03-30T10:17:17.922Z,75
2023-03-30T10:18:48.374Z,75
2023-03-30T10:20:18.726Z,75
2023-03-30T10:21:49.127Z,75
2023-03-30T10:23:19.503Z,75
2023-03-30T10:24:49.849Z,75
2023-03-30T10:26:20.302Z,75
2023-03-30T10:28:22.724Z,75
2023-03-30T10:29:53.149Z,75
2023-03-30T10:31:24.988Z,75
2023-03-30T10:33:25.903Z,75
2023-03-30T10:34:56.223Z,75
2023-03-30T10:36:26.616Z,75
2023-03-30T10:37:56.975Z,75
2023-03-30T10:39:27.400Z,76
2023-03-30T10:40:57.761Z,76
2023-03-30T10:43:00.158Z,76
2023-03-30T10:44:30.546Z,76
2023-03-30T10:46:09.199Z,76
2023-03-30T10:47:31.380Z,76
2023-03-30T10:49:01.771Z,76
2023-03-30T10:50:32.179Z,76
2023-03-30T10:52:02.646Z,76
2023-03-30T10:54:05.050Z,76
2023-03-30T10:55:35.390Z,76
2023-03-30T10:57:05.760Z,76
2023-03-30T10:58:36.146Z,76
2023-03-30T11:00:06.574Z,76
2023-03-30T11:01:37.023Z,76
2023-03-30T11:03:39.465Z,76
2023-03-30T11:05:09.858Z,76
2023-03-30T11:06:40.321Z,76
2023-03-30T11:08:42.730Z,76
2023-03-30T11:10:13.182Z,76
2023-03-30T11:11:43.882Z,76
2023-03-30T11:13:14.223Z,76
2023-03-30T11:14:44.642Z,76
2023-03-30T11:16:15.145Z,76
2023-03-30T11:18:17.554Z,76
2023-03-30T11:19:47.943Z,76
2023-03-30T11:21:18.433Z,76
2023-03-30T11:22:48.767Z,76
2023-03-30T11:24:19.216Z,76
2023-03-30T11:25:49.614Z,77
2023-03-30T11:27:19.972Z,76
2023-03-30T11:29:22.409Z,77
2023-03-30T11:30:52.710Z,77
2023-03-30T11:32:23.075Z,77
2023-03-30T11:33:53.457Z,77
2023-03-30T11:35:23.770Z,77
2023-03-30T11:36:54.118Z,77
2023-03-30T11:38:24.548Z,76
2023-03-30T11:39:54.946Z,76
2023-03-30T11:41:25.353Z,76
2023-03-30T11:42:55.758Z,77
2023-03-30T11:44:26.080Z,76
2023-03-30T11:45:56.589Z,76
2023-03-30T11:47:27.071Z,76
2023-03-30T11:48:57.337Z,77
2023-03-30T11:50:27.774Z,77
2023-03-30T11:51:58.219Z,77
2023-03-30T11:53:28.544Z,77
2023-03-30T11:55:30.973Z,77
2023-03-30T11:57:01.373Z,77
2023-03-30T11:58:31.676Z,77
2023-03-30T12:00:34.079Z,77
2023-03-30T12:02:04.557Z,77
2023-03-30T12:03:35.230Z,77
2023-03-30T12:05:05.405Z,77
2023-03-30T12:06:35.754Z,77
2023-03-30T12:08:06.142Z,77
2023-03-30T12:10:08.601Z,77
2023-03-30T12:11:38.957Z,77
2023-03-30T12:13:09.425Z,77
2023-03-30T12:14:39.788Z,77
2023-03-30T12:16:10.141Z,77
2023-03-30T12:17:40.621Z,77
2023-03-30T12:19:11.111Z,77
2023-03-30T12:21:13.433Z,77
2023-03-30T12:22:43.777Z,77
2023-03-30T12:24:14.103Z,77
2023-03-30T12:25:44.518Z,78
2023-03-30T12:27:14.912Z,78
2023-03-30T12:29:04.869Z,78
2023-03-30T12:30:15.739Z,78
2023-03-30T12:31:46.167Z,78
2023-03-30T12:33:16.470Z,78
2023-03-30T12:34:46.863Z,78
2023-03-30T12:36:17.241Z,78
2023-03-30T12:37:47.625Z,78
2023-03-30T12:39:18.031Z,78
2023-03-30T12:40:48.400Z,78
2023-03-30T12:42:18.799Z,78
2023-03-30T12:43:49.170Z,78
2023-03-30T12:45:19.615Z,78
2023-03-30T12:46:50.001Z,79
2023-03-30T12:48:20.379Z,79
2023-03-30T12:49:50.726Z,79
2023-03-30T12:51:21.128Z,78
2023-03-30T12:52:51.452Z,79
2023-03-30T12:54:21.887Z,79
2023-03-30T12:55:52.250Z,79
2023-03-30T12:57:22.774Z,79
2023-03-30T12:58:52.932Z,78
2023-03-30T13:00:23.339Z,78
2023-03-30T13:01:53.630Z,78
2023-03-30T13:03:24.055Z,78
2023-03-30T13:04:54.486Z,78
2023-03-30T13:06:56.851Z,78
2023-03-30T13:08:27.286Z,78
2023-03-30T13:09:57.610Z,78
2023-03-30T13:11:27.982Z,78
2023-03-30T13:12:58.314Z,78
2023-03-30T13:14:28.711Z,78
2023-03-30T13:15:59.067Z,78
2023-03-30T13:17:29.549Z,79
2023-03-30T13:18:59.810Z,79
2023-03-30T13:20:30.669Z,79
2023-03-30T13:22:00.543Z,79
2023-03-30T13:23:30.947Z,79
2023-03-30T13:25:01.296Z,78
2023-03-30T13:26:34.841Z,78
2023-03-30T13:28:01.990Z,78
2023-03-30T13:29:32.452Z,78
2023-03-30T13:31:34.898Z,78
2023-03-30T13:33:05.202Z,78
2023-03-30T13:34:35.560Z,78
2023-03-30T13:36:06.193Z,78
2023-03-30T13:37:36.383Z,78
2023-03-30T13:39:06.775Z,78
2023-03-30T13:40:44.080Z,78
2023-03-30T13:42:07.509Z,78
2023-03-30T13:43:37.841Z,77
2023-03-30T13:45:08.175Z,77
2023-03-30T13:46:38.562Z,77
2023-03-30T13:48:08.940Z,77
2023-03-30T13:49:39.316Z,77
2023-03-30T13:51:09.789Z,77
2023-03-30T13:52:40.155Z,78
2023-03-30T13:54:10.565Z,77
2023-03-30T13:55:41.027Z,77
2023-03-30T13:57:11.464Z,78
2023-03-30T13:58:41.702Z,78
2023-03-30T14:00:12.050Z,77
2023-03-30T14:01:42.409Z,78
2023-03-30T14:03:12.776Z,77
2023-03-30T14:04:43.179Z,77
2023-03-30T14:06:13.686Z,78
2023-03-30T14:07:43.962Z,77
2023-03-30T14:09:14.366Z,78
2023-03-30T14:10:44.724Z,77
2023-03-30T14:12:47.248Z,77
2023-03-30T14:14:17.659Z,77
2023-03-30T14:15:48.149Z,77
2023-03-30T14:17:50.601Z,77
2023-03-30T14:19:20.969Z,77
2023-03-30T14:20:51.346Z,77
2023-03-30T14:22:53.793Z,77
2023-03-30T14:24:24.200Z,77
2023-03-30T14:25:54.672Z,77
2023-03-30T14:27:57.212Z,77
2023-03-30T14:29:31.167Z,77
2023-03-30T14:30:57.847Z,77
2023-03-30T14:32:28.248Z,77
2023-03-30T14:33:58.560Z,77
2023-03-30T14:35:28.987Z,77
2023-03-30T14:36:59.332Z,77
2023-03-30T14:39:01.828Z,77
2023-03-30T14:40:32.148Z,77
2023-03-30T14:42:02.515Z,77
2023-03-30T14:43:32.922Z,77
2023-03-30T14:45:03.229Z,77
2023-03-30T14:46:33.599Z,77
2023-03-30T14:48:03.962Z,77
2023-03-30T14:49:34.302Z,77
2023-03-30T14:51:04.752Z,77
2023-03-30T14:52:35.151Z,77
2023-03-30T14:54:05.554Z,77
2023-03-30T14:55:35.958Z,77
2023-03-30T14:57:06.418Z,77
2023-03-30T14:59:08.745Z,77
2023-03-30T15:00:39.172Z,77
2023-03-30T15:02:09.542Z,77
2023-03-30T15:04:12.018Z,77
2023-03-30T15:05:42.377Z,77
2023-03-30T15:07:12.719Z,77
2023-03-30T15:08:43.117Z,77
2023-03-30T15:10:13.463Z,77
2023-03-30T15:11:43.798Z,77
2023-03-30T15:13:14.160Z,77
2023-03-30T15:14:44.597Z,77
2023-03-30T15:16:14.986Z,77
2023-03-30T15:17:45.329Z,77
2023-03-30T15:19:15.760Z,77
2023-03-30T15:20:46.160Z,77
2023-03-30T15:22:16.648Z,77
2023-03-30T15:24:19.044Z,77
2023-03-30T15:25:49.496Z,77
2023-03-30T15:27:19.966Z,77
2023-03-30T15:29:22.382Z,77
2023-03-30T15:30:52.856Z,77
2023-03-30T15:32:23.262Z,77
2023-03-30T15:34:25.689Z,77
2023-03-30T15:35:56.145Z,77
2023-03-30T15:37:26.465Z,77
2023-03-30T15:39:28.890Z,77
2023-03-30T15:40:59.232Z,77
2023-03-30T15:42:29.685Z,77
2023-03-30T15:44:32.092Z,77
2023-03-30T15:46:02.569Z,77
2023-03-30T15:47:32.853Z,77
2023-03-30T15:49:35.297Z,77
2023-03-30T15:51:05.841Z,77
2023-03-30T15:52:36.076Z,77
2023-03-30T15:54:06.455Z,77
2023-03-30T15:55:36.853Z,77
2023-03-30T15:57:07.224Z,77
2023-03-30T15:58:37.634Z,77
2023-03-30T16:00:08.042Z,77
2023-03-30T16:01:38.458Z,76
2023-03-30T16:03:08.951Z,76
2023-03-30T16:04:39.333Z,76
2023-03-30T16:06:09.700Z,76
2023-03-30T16:07:40.055Z,76
2023-03-30T16:09:10.476Z,76
2023-03-30T16:11:12.923Z,76
2023-03-30T16:12:43.308Z,76
2023-03-30T16:14:45.713Z,76
2023-03-30T16:16:16.144Z,76
2023-03-30T16:17:46.506Z,76
2023-03-30T16:19:48.917Z,76
2023-03-30T16:21:19.211Z,76
2023-03-30T16:22:49.591Z,76
2023-03-30T16:24:52.001Z,76
2023-03-30T16:26:22.310Z,76
2023-03-30T16:27:52.713Z,76
2023-03-30T16:29:23.061Z,76
2023-03-30T16:30:53.395Z,76
2023-03-30T16:32:24.197Z,76
2023-03-30T16:33:54.181Z,76
2023-03-30T16:35:56.646Z,76
2023-03-30T16:37:27.023Z,76
2023-03-30T16:38:57.442Z,76
2023-03-30T16:40:59.790Z,76
2023-03-30T16:42:30.283Z,76
2023-03-30T16:44:00.808Z,76
2023-03-30T16:46:03.143Z,76
2023-03-30T16:47:33.609Z,76
2023-03-30T16:49:03.906Z,76
2023-03-30T16:51:06.501Z,76
2023-03-30T16:52:36.736Z,76
2023-03-30T16:54:11.471Z,76
2023-03-30T16:55:37.470Z,75
2023-03-30T16:57:09.876Z,76
2023-03-30T16:58:38.308Z,76
2023-03-30T17:00:08.775Z,76
2023-03-30T17:01:39.084Z,76
2023-03-30T17:03:09.485Z,76
2023-03-30T17:04:39.826Z,76
2023-03-30T17:06:10.224Z,76
2023-03-30T17:07:40.525Z,76
2023-03-30T17:09:10.898Z,76
2023-03-30T17:10:41.273Z,76
2023-03-30T17:12:11.882Z,76
2023-03-30T17:13:42.309Z,76
2023-03-30T17:15:12.870Z,75
2023-03-30T17:16:43.246Z,76
2023-03-30T17:18:13.588Z,75
2023-03-30T17:19:44.023Z,76
2023-03-30T17:21:14.503Z,76
2023-03-30T17:22:45.072Z,75
2023-03-30T17:24:15.333Z,75
2023-03-30T17:25:47.488Z,75
2023-03-30T17:27:16.062Z,75
2023-03-30T17:28:46.404Z,75
2023-03-30T17:30:16.912Z,75
2023-03-30T17:32:19.301Z,75
2023-03-30T17:33:49.706Z,75
2023-03-30T17:35:20.184Z,75
2023-03-30T17:37:22.604Z,75
2023-03-30T17:38:52.943Z,75
2023-03-30T17:40:23.260Z,76
2023-03-30T17:41:53.647Z,76
2023-03-30T17:43:24.080Z,76
2023-03-30T17:44:54.463Z,76
2023-03-30T17:46:56.913Z,76
2023-03-30T17:48:27.263Z,76
2023-03-30T17:49:57.640Z,76
2023-03-30T17:51:28.040Z,76
2023-03-30T17:52:58.348Z,76
2023-03-30T17:54:28.788Z,76
2023-03-30T17:56:31.223Z,76
2023-03-30T17:58:01.563Z,76
2023-03-30T17:59:32.027Z,76
2023-03-30T18:01:02.585Z,76
2023-03-30T18:02:32.754Z,76
2023-03-30T18:04:03.085Z,76
2023-03-30T18:05:33.384Z,76
2023-03-30T18:07:03.766Z,76
2023-03-30T18:08:34.178Z,76
2023-03-30T18:10:04.541Z,76
2023-03-30T18:11:34.908Z,76
2023-03-30T18:13:05.328Z,76
2023-03-30T18:14:35.649Z,76
2023-03-30T18:16:06.108Z,76
2023-03-30T18:17:36.481Z,76
2023-03-30T18:19:06.683Z,76
2023-03-30T18:20:37.075Z,76
2023-03-30T18:22:07.428Z,76
2023-03-30T18:23:37.886Z,76
2023-03-30T18:25:09.674Z,76
2023-03-30T18:26:38.642Z,76
2023-03-30T18:28:41.056Z,76
2023-03-30T18:30:11.541Z,76
2023-03-30T18:31:41.968Z,76
2023-03-30T18:33:44.476Z,76
2023-03-30T18:35:14.791Z,76
2023-03-30T18:36:45.168Z,76
2023-03-30T18:38:47.587Z,76
2023-03-30T18:40:17.892Z,76
2023-03-30T18:41:48.255Z,76
2023-03-30T18:43:18.662Z,76
2023-03-30T18:44:48.957Z,76
2023-03-30T18:46:19.325Z,76
2023-03-30T18:48:21.794Z,76
2023-03-30T18:49:52.171Z,76
2023-03-30T18:51:22.517Z,76
2023-03-30T18:52:52.948Z,75
2023-03-30T18:54:55.395Z,75
2023-03-30T18:56:25.814Z,75
2023-03-30T18:57:56.214Z,75
2023-03-30T18:59:26.612Z,75
2023-03-30T19:00:57.008Z,75
2023-03-30T19:02:59.535Z,75
2023-03-30T19:04:29.812Z,75
2023-03-30T19:06:00.215Z,75
2023-03-30T19:07:30.566Z,75
2023-03-30T19:09:00.977Z,75
2023-03-30T19:10:31.416Z,75
2023-03-30T19:12:01.869Z,75
2023-03-30T19:13:32.231Z,75
2023-03-30T19:15:02.648Z,75
2023-03-30T19:16:33.093Z,75
2023-03-30T19:18:03.418Z,75
2023-03-30T19:19:33.829Z,75
2023-03-30T19:21:04.444Z,75
2023-03-30T19:22:34.651Z,75
2023-03-30T19:24:04.996Z,75
2023-03-30T19:25:35.401Z,75
2023-03-30T19:27:05.795Z,75
2023-03-30T19:28:36.134Z,75
2023-03-30T19:30:06.452Z,75
2023-03-30T19:31:36.943Z,75
2023-03-30T19:33:39.336Z,75
2023-03-30T19:35:09.799Z,75
2023-03-30T19:36:40.280Z,75
2023-03-30T19:38:42.651Z,75
2023-03-30T19:40:13.066Z,75
2023-03-30T19:41:43.420Z,75
2023-03-30T19:43:13.799Z,75
2023-03-30T19:44:44.155Z,75
2023-03-30T19:46:14.631Z,75
2023-03-30T19:47:45.044Z,75
2023-03-30T19:49:47.454Z,75
2023-03-30T19:51:17.876Z,75
2023-03-30T19:52:48.404Z,75
2023-03-30T19:54:50.769Z,75
2023-03-30T19:56:21.170Z,75
2023-03-30T19:57:51.537Z,75
2023-03-30T19:59:53.985Z,75
2023-03-30T20:01:24.358Z,75
2023-03-30T20:02:54.694Z,75
2023-03-30T20:04:25.007Z,75
2023-03-30T20:05:55.306Z,75
2023-03-30T20:07:25.636Z,75
2023-03-30T20:08:56.113Z,75
2023-03-30T20:10:26.494Z,75
2023-03-30T20:11:56.859Z,75
2023-03-30T20:13:59.255Z,75
2023-03-30T20:15:29.588Z,75
2023-03-30T20:16:59.936Z,75
2023-03-30T20:18:30.321Z,75
2023-03-30T20:20:00.633Z,75
2023-03-30T20:21:30.944Z,75
2023-03-30T20:23:01.432Z,75
2023-03-30T20:25:03.878Z,75
2023-03-30T20:26:34.197Z,75
2023-03-30T20:28:04.636Z,75
2023-03-30T20:29:35.022Z,75
2023-03-30T20:31:05.547Z,75
2023-03-30T20:32:35.902Z,75
2023-03-30T20:34:06.181Z,75
2023-03-30T20:35:36.613Z,75
2023-03-30T20:37:07.075Z,75
2023-03-30T20:38:37.433Z,75
2023-03-30T20:40:07.867Z,75
2023-03-30T20:41:38.339Z,75
2023-03-30T20:43:08.644Z,75
2023-03-30T20:44:38.991Z,75
2023-03-30T20:46:09.737Z,75
2023-03-30T20:47:39.678Z,75
2023-03-30T20:49:10.047Z,75
2023-03-30T20:50:40.387Z,75
2023-03-30T20:52:10.712Z,75
2023-03-30T20:53:41.110Z,75
2023-03-30T20:55:16.513Z,75
2023-03-30T20:56:46.898Z,75
2023-03-30T20:58:17.237Z,75
2023-03-30T21:00:19.662Z,75
2023-03-30T21:01:50.124Z,75
2023-03-30T21:03:20.552Z,75
2023-03-30T21:05:22.957Z,74
2023-03-30T21:06:53.280Z,74
2023-03-30T21:08:23.732Z,75
2023-03-30T21:09:54.116Z,75
2023-03-30T21:11:24.484Z,74
2023-03-30T21:12:54.783Z,74
2023-03-30T21:14:25.168Z,75
2023-03-30T21:15:55.486Z,75
2023-03-30T21:17:25.887Z,75
2023-03-30T21:18:56.248Z,74
2023-03-30T21:20:26.657Z,75
2023-03-30T21:21:56.984Z,74
2023-03-30T21:23:27.415Z,74
2023-03-30T21:25:29.854Z,74
2023-03-30T21:27:00.312Z,74
2023-03-30T21:28:30.747Z,75
2023-03-30T21:30:33.174Z,74
2023-03-30T21:32:03.602Z,74
2023-03-30T21:33:34.244Z,74
2023-03-30T21:35:04.403Z,74
2023-03-30T21:36:34.876Z,74
2023-03-30T21:38:05.303Z,74
2023-03-30T21:40:07.733Z,74
2023-03-30T21:41:38.158Z,74
2023-03-30T21:43:08.534Z,74
2023-03-30T21:45:10.935Z,75
2023-03-30T21:46:41.309Z,74
2023-03-30T21:48:11.609Z,74
2023-03-30T21:49:42.030Z,74
2023-03-30T21:51:12.440Z,74
2023-03-30T21:52:42.776Z,74
2023-03-30T21:54:45.187Z,74
2023-03-30T21:56:15.632Z,74
2023-03-30T21:57:45.983Z,74
2023-03-30T21:59:48.461Z,74
2023-03-30T22:01:18.877Z,74
2023-03-30T22:02:49.254Z,74
2023-03-30T22:04:51.608Z,74
2023-03-30T22:06:22.029Z,74
2023-03-30T22:07:52.382Z,74
2023-03-30T22:09:22.757Z,74
2023-03-30T22:10:53.191Z,74
2023-03-30T22:12:23.608Z,74
2023-03-30T22:13:53.966Z,74
2023-03-30T22:15:24.376Z,74
2023-03-30T22:16:54.642Z,74
2023-03-30T22:18:25.020Z,74
2023-03-30T22:20:27.436Z,74
2023-03-30T22:21:57.873Z,74
2023-03-30T22:23:28.215Z,74
2023-03-30T22:24:58.603Z,74
2023-03-30T22:26:28.911Z,74
2023-03-30T22:27:59.271Z,74